createdAt,value
2023-05-13T00:04:52.650Z,43.61
2023-05-13T00:09:54.454Z,42.89
2023-05-13T00:14:56.214Z,42.22
2023-05-13T00:19:58.294Z,42.66
2023-05-13T00:25:00.237Z,43.19
2023-05-13T00:30:02.306Z,43.01
2023-05-13T00:35:04.405Z,42.81
2023-05-13T00:40:16.107Z,42.48
2023-05-13T00:45:18.403Z,42.64
2023-05-13T00:50:20.792Z,42.73
2023-05-13T00:55:22.761Z,42.76
2023-05-13T01:00:24.750Z,42.81
2023-05-13T01:05:47.174Z,43.21
2023-05-13T01:10:59.058Z,43.34
2023-05-13T01:16:06.953Z,43.01
2023-05-13T01:21:10.434Z,42.88
2023-05-13T01:26:12.377Z,42.87
2023-05-13T01:31:15.517Z,43.64
2023-05-13T01:36:18.244Z,43.48
2023-05-13T01:41:20.099Z,43.84
2023-05-13T01:46:22.499Z,43.16
2023-05-13T01:51:24.603Z,43.52
2023-05-13T01:56:26.672Z,43.30
2023-05-13T02:01:28.922Z,44.01
2023-05-13T02:06:32.178Z,43.80
2023-05-13T02:11:35.655Z,43.17
2023-05-13T02:16:37.595Z,42.92
2023-05-13T02:21:43.415Z,42.50
2023-05-13T02:26:45.165Z,42.80
2023-05-13T02:31:46.998Z,42.85
2023-05-13T02:36:48.874Z,42.78
2023-05-13T02:41:50.783Z,42.52
2023-05-13T02:46:53.118Z,43.31
2023-05-13T02:51:54.983Z,43.83
2023-05-13T02:57:03.336Z,44.26
2023-05-13T03:02:05.493Z,43.86
2023-05-13T03:07:07.490Z,43.53
2023-05-13T03:12:09.454Z,43.11
2023-05-13T03:17:11.511Z,42.73
2023-05-13T03:22:13.298Z,44.71
2023-05-13T03:27:15.298Z,43.62
2023-05-13T03:32:17.115Z,43.51
2023-05-13T03:37:19.404Z,43.13
2023-05-13T03:42:23.250Z,43.37
2023-05-13T03:47:26.033Z,43.17
2023-05-13T03:52:28.447Z,43.98
2023-05-13T03:57:30.291Z,43.78
2023-05-13T04:02:32.250Z,43.37
2023-05-13T04:07:34.675Z,43.42
2023-05-13T04:12:37.448Z,42.81
2023-05-13T04:17:39.317Z,43.12
2023-05-13T04:22:41.637Z,43.29
2023-05-13T04:27:43.685Z,43.60
2023-05-13T04:32:51.390Z,43.36
2023-05-13T04:37:53.617Z,42.92
2023-05-13T04:42:56.148Z,42.83
2023-05-13T04:48:02.805Z,42.93
2023-05-13T04:53:04.794Z,42.68
2023-05-13T04:58:07.000Z,42.64
2023-05-13T05:03:10.915Z,42.77
2023-05-13T05:08:13.029Z,43.27
2023-05-13T05:13:15.452Z,43.03
2023-05-13T05:18:19.975Z,43.08
2023-05-13T05:23:24.891Z,42.64
2023-05-13T05:28:26.968Z,42.65
2023-05-13T05:33:29.156Z,42.62
2023-05-13T05:38:31.203Z,42.13
2023-05-13T05:43:34.340Z,41.69
2023-05-13T05:48:36.205Z,41.82
2023-05-13T05:53:41.077Z,41.68
2023-05-13T05:58:44.892Z,41.53
2023-05-13T06:03:47.072Z,41.32
2023-05-13T06:08:50.866Z,41.43
2023-05-13T06:13:54.132Z,41.33
2023-05-13T06:18:56.651Z,43.86
2023-05-13T06:24:00.909Z,47.03
2023-05-13T06:29:03.031Z,53.37
2023-05-13T06:34:08.798Z,53.57
2023-05-13T06:39:12.288Z,49.97
2023-05-13T06:44:14.885Z,48.56
2023-05-13T06:49:21.240Z,48.17
2023-05-13T06:54:23.281Z,50.30
2023-05-13T06:59:25.398Z,47.74
2023-05-13T07:04:29.356Z,55.50
2023-05-13T07:09:31.271Z,55.93
2023-05-13T07:14:33.111Z,58.48
2023-05-13T07:19:34.913Z,57.86
2023-05-13T07:24:36.835Z,54.08
2023-05-13T07:29:38.666Z,51.34
2023-05-13T07:34:40.482Z,49.45
2023-05-13T07:39:42.451Z,52.25
2023-05-13T07:44:44.217Z,53.31
2023-05-13T07:49:46.072Z,51.56
2023-05-13T07:54:48.221Z,50.28
2023-05-13T07:59:50.080Z,49.81
2023-05-13T08:04:51.909Z,59.25
2023-05-13T08:09:53.801Z,56.48
2023-05-13T08:14:55.624Z,56.44
2023-05-13T08:19:57.519Z,59.02
2023-05-13T08:25:00.977Z,54.15
2023-05-13T08:30:03.302Z,51.28
2023-05-13T08:35:05.686Z,58.18
2023-05-13T08:40:08.265Z,57.61
2023-05-13T08:45:11.697Z,56.40
2023-05-13T08:50:14.391Z,53.42
2023-05-13T08:55:17.454Z,51.37
2023-05-13T09:00:21.382Z,48.31
2023-05-13T09:05:25.144Z,52.39
2023-05-13T09:10:28.082Z,52.28
2023-05-13T09:15:30.549Z,56.18
2023-05-13T09:20:33.236Z,58.37
2023-05-13T09:25:36.510Z,61.70
2023-05-13T09:30:40.651Z,63.04
2023-05-13T09:35:44.625Z,55.33
2023-05-13T09:41:05.135Z,60.52
2023-05-13T09:46:09.285Z,64.74
2023-05-13T09:51:12.065Z,60.86
2023-05-13T09:56:13.891Z,58.45
2023-05-13T10:01:16.110Z,61.23
2023-05-13T10:06:18.695Z,58.70
2023-05-13T10:11:21.523Z,53.60
2023-05-13T10:16:25.204Z,59.71
2023-05-13T10:21:27.809Z,55.48
2023-05-13T10:26:29.999Z,56.18
2023-05-13T10:31:32.174Z,55.55
2023-05-13T10:36:48.870Z,50.00
2023-05-13T10:41:53.403Z,50.08
2023-05-13T10:46:58.542Z,51.24
2023-05-13T10:52:14.335Z,51.92
2023-05-13T10:57:17.722Z,53.39
2023-05-13T11:02:22.101Z,55.32
2023-05-13T11:07:24.031Z,57.48
2023-05-13T11:12:26.011Z,54.51
2023-05-13T11:17:31.177Z,49.98
2023-05-13T11:22:34.027Z,48.89
2023-05-13T11:27:41.553Z,46.15
2023-05-13T11:32:56.491Z,45.44
2023-05-13T11:38:03.310Z,44.62
2023-05-13T11:43:06.258Z,43.98
2023-05-13T11:48:22.310Z,41.88
2023-05-13T11:53:24.135Z,43.42
2023-05-13T11:58:26.167Z,43.42
2023-05-13T12:03:28.218Z,42.90
2023-05-13T12:08:30.258Z,42.82
2023-05-13T12:13:32.145Z,43.13
2023-05-13T12:18:34.427Z,42.62
2023-05-13T12:23:40.822Z,43.05
2023-05-13T12:28:42.858Z,42.65
2023-05-13T12:33:46.875Z,43.10
2023-05-13T12:39:00.043Z,44.14
2023-05-13T12:44:14.896Z,43.39
2023-05-13T12:49:16.835Z,44.44
2023-05-13T12:54:18.971Z,48.08
2023-05-13T12:59:20.839Z,45.50
2023-05-13T13:04:23.405Z,46.11
2023-05-13T13:09:25.434Z,44.70
2023-05-13T13:14:27.364Z,43.79
2023-05-13T13:19:29.216Z,43.31
2023-05-13T13:24:31.545Z,44.50
2023-05-13T13:29:33.359Z,47.10
2023-05-13T13:34:35.342Z,47.25
2023-05-13T13:39:37.167Z,46.94
2023-05-13T13:44:39.517Z,46.50
2023-05-13T13:49:41.375Z,48.12
2023-05-13T13:54:43.113Z,46.70
2023-05-13T13:59:44.973Z,47.16
2023-05-13T14:04:46.716Z,44.79
2023-05-13T14:09:49.743Z,44.50
2023-05-13T14:14:51.583Z,44.61
2023-05-13T14:19:55.463Z,42.37
2023-05-13T14:24:58.863Z,42.52
2023-05-13T14:30:00.608Z,43.39
2023-05-13T14:35:02.411Z,47.21
2023-05-13T14:40:04.721Z,46.06
2023-05-13T14:45:07.160Z,44.41
2023-05-13T14:50:09.107Z,45.38
2023-05-13T14:55:11.078Z,47.35
2023-05-13T15:00:13.488Z,44.90
2023-05-13T15:05:15.286Z,47.55
2023-05-13T15:10:17.055Z,44.97
2023-05-13T15:15:19.041Z,47.71
2023-05-13T15:20:21.056Z,48.72
2023-05-13T15:25:22.996Z,51.68
2023-05-13T15:30:24.920Z,49.10
2023-05-13T15:35:26.723Z,54.23
2023-05-13T15:40:28.499Z,56.07
2023-05-13T15:45:30.622Z,59.58
2023-05-13T15:50:33.731Z,61.59
2023-05-13T15:55:37.415Z,60.37
2023-05-13T16:00:39.224Z,57.39
2023-05-13T16:05:41.134Z,55.46
2023-05-13T16:10:43.084Z,53.05
2023-05-13T16:15:45.049Z,51.37
2023-05-13T16:20:47.085Z,50.72
2023-05-13T16:25:48.979Z,50.14
2023-05-13T16:30:51.314Z,49.68
2023-05-13T16:35:55.823Z,54.26
2023-05-13T16:40:57.691Z,53.24
2023-05-13T16:45:59.511Z,48.32
2023-05-13T16:51:01.339Z,46.33
2023-05-13T16:56:03.149Z,51.89
2023-05-13T17:01:04.976Z,53.33
2023-05-13T17:06:07.568Z,55.09
2023-05-13T17:11:16.069Z,53.97
2023-05-13T17:16:18.061Z,50.14
2023-05-13T17:21:19.866Z,49.86
2023-05-13T17:26:22.019Z,56.41
2023-05-13T17:31:24.987Z,57.35
2023-05-13T17:36:26.979Z,55.79
2023-05-13T17:41:28.738Z,54.89
2023-05-13T17:46:30.643Z,53.30
2023-05-13T17:51:32.503Z,55.72
2023-05-13T17:56:34.336Z,56.22
2023-05-13T18:01:36.204Z,57.38
2023-05-13T18:06:38.022Z,56.40
2023-05-13T18:11:39.872Z,53.30
2023-05-13T18:16:41.897Z,53.85
2023-05-13T18:21:45.520Z,50.38
2023-05-13T18:26:47.370Z,53.36
2023-05-13T18:31:49.229Z,51.35
2023-05-13T18:36:52.211Z,47.94
2023-05-13T18:41:54.013Z,48.95
2023-05-13T18:46:55.933Z,51.74
2023-05-13T18:51:57.842Z,49.33
2023-05-13T18:56:59.743Z,48.01
2023-05-13T19:02:01.802Z,45.82
2023-05-13T19:07:03.808Z,46.34
2023-05-13T19:12:05.941Z,44.54
2023-05-13T19:17:08.014Z,44.52
2023-05-13T19:22:09.899Z,43.94
2023-05-13T19:27:11.872Z,43.53
2023-05-13T19:32:13.693Z,42.98
2023-05-13T19:37:15.524Z,42.82
2023-05-13T19:42:17.332Z,42.14
2023-05-13T19:47:19.170Z,42.08
2023-05-13T19:52:20.980Z,41.71
2023-05-13T19:57:22.742Z,42.09
2023-05-13T20:02:24.483Z,42.44
2023-05-13T20:07:26.210Z,42.89
2023-05-13T20:12:28.048Z,43.32
2023-05-13T20:17:32.990Z,42.69
2023-05-13T20:22:35.135Z,42.26
2023-05-13T20:27:36.935Z,41.96
2023-05-13T20:32:38.781Z,41.54
2023-05-13T20:37:40.975Z,41.24
2023-05-13T20:42:42.928Z,41.16
2023-05-13T20:47:44.658Z,40.77
2023-05-13T20:52:46.432Z,41.69
2023-05-13T20:57:50.068Z,42.76
2023-05-13T21:02:53.194Z,43.88
2023-05-13T21:07:55.006Z,45.34
2023-05-13T21:12:56.712Z,44.80
2023-05-13T21:17:58.830Z,44.27
2023-05-13T21:23:01.326Z,43.85
2023-05-13T21:28:03.711Z,43.97
2023-05-13T21:33:05.688Z,42.96
2023-05-13T21:38:11.846Z,42.67
2023-05-13T21:43:14.434Z,42.75
2023-05-13T21:48:16.606Z,45.65
2023-05-13T21:53:18.444Z,48.65
2023-05-13T21:58:21.895Z,50.22
2023-05-13T22:03:25.119Z,48.88
2023-05-13T22:08:26.834Z,47.24
2023-05-13T22:13:28.641Z,46.77
2023-05-13T22:18:30.903Z,44.71
2023-05-13T22:23:33.333Z,44.30
2023-05-13T22:28:35.072Z,44.14
2023-05-13T22:33:36.821Z,43.57
2023-05-13T22:38:39.019Z,43.54
2023-05-13T22:43:40.783Z,43.05
2023-05-13T22:48:42.533Z,42.53
2023-05-13T22:53:44.332Z,41.88
2023-05-13T22:58:46.126Z,42.21
2023-05-13T23:03:47.917Z,42.01
2023-05-13T23:08:49.670Z,42.19
2023-05-13T23:13:51.533Z,41.70
2023-05-13T23:18:55.132Z,42.53
2023-05-13T23:23:57.918Z,43.02
2023-05-13T23:28:59.671Z,42.29
2023-05-13T23:34:01.492Z,46.42
2023-05-13T23:39:03.385Z,44.93
2023-05-13T23:44:05.160Z,44.46
2023-05-13T23:49:06.986Z,43.73
2023-05-13T23:54:08.774Z,43.01
2023-05-13T23:59:10.615Z,42.54
